createdAt,value
2019-04-03T00:01:07.081Z,99234.78
2019-04-03T00:02:13.628Z,99229.69
2019-04-03T00:03:17.814Z,99222.48
2019-04-03T00:04:21.898Z,99222.86
2019-04-03T00:05:26.126Z,99222.33
2019-04-03T00:06:30.680Z,99225.72
2019-04-03T00:07:35.911Z,99224.84
2019-04-03T00:08:40.100Z,99224.11
2019-04-03T00:09:44.076Z,99222.73
2019-04-03T00:10:48.165Z,99219.63
2019-04-03T00:11:52.086Z,99220.12
2019-04-03T00:12:56.267Z,99216.91
2019-04-03T00:14:00.329Z,99214.55
2019-04-03T00:15:05.592Z,99216.53
2019-04-03T00:16:09.765Z,99214.95
2019-04-03T00:17:15.511Z,99216.44
2019-04-03T00:18:20.154Z,99209.98
2019-04-03T00:19:24.434Z,99210.27
2019-04-03T00:20:28.705Z,99207.29
2019-04-03T00:21:32.886Z,99207.29
2019-04-03T00:22:38.009Z,99200.96
2019-04-03T00:23:42.040Z,99199.22
2019-04-03T00:24:46.193Z,99200.09
2019-04-03T00:25:52.102Z,99204.47
2019-04-03T00:26:56.566Z,99201.70
2019-04-03T00:28:01.083Z,99203.94
2019-04-03T00:29:05.078Z,99199.25
2019-04-03T00:30:09.587Z,99197.52
2019-04-03T00:31:13.977Z,99192.33
2019-04-03T00:32:17.926Z,99195.44
2019-04-03T00:33:23.377Z,99192.48
2019-04-03T00:34:28.157Z,99195.70
2019-04-03T00:35:32.246Z,99202.81
2019-04-03T00:36:36.449Z,99197.59
2019-04-03T00:37:40.314Z,99194.61
2019-04-03T00:38:44.439Z,99182.86
2019-04-03T00:39:48.677Z,99186.58
2019-04-03T00:40:54.308Z,99179.38
2019-04-03T00:41:58.478Z,99183.72
2019-04-03T00:43:03.260Z,99179.38
2019-04-03T00:44:07.446Z,99169.08
2019-04-03T00:45:12.060Z,99169.21
2019-04-03T00:46:16.125Z,99167.96
2019-04-03T00:47:19.971Z,99171.48
2019-04-03T00:48:25.748Z,99168.63
2019-04-03T00:49:29.949Z,99165.16
2019-04-03T00:50:33.890Z,99167.41
2019-04-03T00:51:37.967Z,99163.81
2019-04-03T00:52:42.524Z,99161.83
2019-04-03T00:53:47.586Z,99168.05
2019-04-03T00:54:51.511Z,99166.32
2019-04-03T00:55:56.497Z,99167.17
2019-04-03T00:57:01.114Z,99165.09
2019-04-03T00:58:49.633Z,99172.53
2019-04-03T00:59:54.686Z,99166.81
2019-04-03T01:00:59.563Z,99158.14
2019-04-03T01:02:03.566Z,99160.13
2019-04-03T01:03:07.892Z,99159.98
2019-04-03T01:04:12.288Z,99159.27
2019-04-03T01:05:16.562Z,99154.92
2019-04-03T01:06:21.345Z,99153.68
2019-04-03T01:07:25.661Z,99149.59
2019-04-03T01:08:29.825Z,99148.59
2019-04-03T01:09:34.161Z,99149.47
2019-04-03T01:10:38.132Z,99142.16
2019-04-03T01:11:42.149Z,99140.79
2019-04-03T01:12:46.239Z,99136.20
2019-04-03T01:13:50.158Z,99134.34
2019-04-03T01:14:53.993Z,99126.17
2019-04-03T01:15:58.467Z,99124.69
2019-04-03T01:17:04.416Z,99135.44
2019-04-03T01:18:08.271Z,99129.98
2019-04-03T01:19:12.697Z,99133.09
2019-04-03T01:20:16.792Z,99127.02
2019-04-03T01:21:20.970Z,99127.89
2019-04-03T01:22:25.031Z,99129.75
2019-04-03T01:23:28.978Z,99128.50
2019-04-03T01:24:33.541Z,99129.87
2019-04-03T01:25:39.443Z,99127.63
2019-04-03T01:26:43.654Z,99123.54
2019-04-03T01:27:47.495Z,99120.09
2019-04-03T01:28:51.694Z,99121.46
2019-04-03T01:29:55.921Z,99120.09
2019-04-03T01:31:00.077Z,99119.08
2019-04-03T01:32:04.777Z,99118.20
2019-04-03T01:33:08.711Z,99118.09
2019-04-03T01:34:13.301Z,99119.45
2019-04-03T01:35:17.866Z,99119.83
2019-04-03T01:36:22.310Z,99123.80
2019-04-03T01:37:26.563Z,99120.32
2019-04-03T01:38:30.533Z,99112.02
2019-04-03T01:39:34.489Z,99109.91
2019-04-03T01:40:38.649Z,99109.69
2019-04-03T01:41:42.965Z,99108.06
2019-04-03T01:42:46.877Z,99104.47
2019-04-03T01:43:53.159Z,99100.88
2019-04-03T01:44:57.423Z,99107.69
2019-04-03T01:46:01.914Z,99107.31
2019-04-03T01:47:05.783Z,99107.69
2019-04-03T01:48:10.018Z,99107.20
2019-04-03T01:49:14.202Z,99110.30
2019-04-03T01:50:18.342Z,99109.43
2019-04-03T01:51:22.596Z,99108.94
2019-04-03T01:52:27.089Z,99108.81
2019-04-03T01:53:32.712Z,99101.63
2019-04-03T01:54:37.056Z,99103.98
2019-04-03T01:55:41.343Z,99101.25
2019-04-03T01:56:45.256Z,99101.37
2019-04-03T01:57:50.410Z,99096.30
2019-04-03T01:58:54.682Z,99105.58
2019-04-03T01:59:58.857Z,99108.31
2019-04-03T02:01:03.393Z,99106.57
2019-04-03T02:02:08.507Z,99108.09
2019-04-03T02:03:13.062Z,99105.36
2019-04-03T02:04:17.830Z,99100.41
2019-04-03T02:05:22.366Z,99103.63
2019-04-03T02:06:26.577Z,99101.27
2019-04-03T02:07:31.203Z,99103.63
2019-04-03T02:08:35.033Z,99104.12
2019-04-03T02:09:38.932Z,99102.75
2019-04-03T02:10:43.243Z,99100.89
2019-04-03T02:11:47.647Z,99106.23
2019-04-03T02:12:53.197Z,99101.27
2019-04-03T02:13:57.650Z,99102.14
2019-04-03T02:15:01.982Z,99098.05
2019-04-03T02:16:06.082Z,99092.34
2019-04-03T02:17:10.250Z,99094.70
2019-04-03T02:18:14.089Z,99092.09
2019-04-03T02:19:18.490Z,99091.34
2019-04-03T02:20:22.471Z,99091.34
2019-04-03T02:21:27.712Z,99090.84
2019-04-03T02:22:32.142Z,99092.20
2019-04-03T02:23:36.332Z,99087.75
2019-04-03T02:24:40.493Z,99094.06
2019-04-03T02:25:44.547Z,99096.80
2019-04-03T02:26:48.798Z,99092.70
2019-04-03T02:27:55.797Z,99087.41
2019-04-03T02:28:59.876Z,99086.53
2019-04-03T02:30:04.505Z,99095.09
2019-04-03T02:31:08.451Z,99095.09
2019-04-03T02:32:12.308Z,99099.17
2019-04-03T02:33:16.777Z,99098.80
2019-04-03T02:34:20.631Z,99098.92
2019-04-03T02:35:24.775Z,99095.70
2019-04-03T02:36:28.973Z,99092.69
2019-04-03T02:37:33.456Z,99095.53
2019-04-03T02:38:37.638Z,99093.80
2019-04-03T02:39:42.108Z,99096.19
2019-04-03T02:40:46.635Z,99096.68
2019-04-03T02:41:50.999Z,99092.59
2019-04-03T02:42:55.062Z,99091.22
2019-04-03T02:43:59.017Z,99088.99
2019-04-03T02:45:03.735Z,99094.45
2019-04-03T02:46:07.710Z,99093.20
2019-04-03T02:47:11.780Z,99087.63
2019-04-03T02:48:16.214Z,99089.98
2019-04-03T02:49:20.924Z,99081.42
2019-04-03T02:50:26.670Z,99095.93
2019-04-03T02:51:31.253Z,99089.23
2019-04-03T02:52:36.260Z,99091.46
2019-04-03T02:53:40.667Z,99087.88
2019-04-03T02:54:45.460Z,99094.31
2019-04-03T02:55:49.711Z,99093.44
2019-04-03T02:56:54.223Z,99091.20
2019-04-03T02:57:58.906Z,99090.83
2019-04-03T02:59:02.932Z,99091.20
2019-04-03T03:00:08.575Z,99096.55
2019-04-03T03:01:12.746Z,99093.70
2019-04-03T03:02:16.945Z,99096.55
2019-04-03T03:03:21.271Z,99094.69
2019-04-03T03:04:26.519Z,99092.95
2019-04-03T03:05:30.715Z,99094.31
2019-04-03T03:06:34.643Z,99096.66
2019-04-03T03:07:38.838Z,99096.17
2019-04-03T03:08:43.105Z,99096.05
2019-04-03T03:09:48.038Z,99096.17
2019-04-03T03:10:53.478Z,99097.03
2019-04-03T03:11:58.421Z,99093.94
2019-04-03T03:13:02.802Z,99087.77
2019-04-03T03:14:08.245Z,99090.11
2019-04-03T03:15:12.792Z,99084.66
2019-04-03T03:16:18.444Z,99092.20
2019-04-03T03:17:23.627Z,99094.70
2019-04-03T03:18:28.698Z,99097.42
2019-04-03T03:19:33.945Z,99093.83
2019-04-03T03:20:39.861Z,99088.00
2019-04-03T03:21:45.555Z,99091.59
2019-04-03T03:22:51.179Z,99091.22
2019-04-03T03:23:57.155Z,99094.82
2019-04-03T03:25:02.419Z,99092.21
2019-04-03T03:26:07.716Z,99099.14
2019-04-03T03:27:12.267Z,99096.81
2019-04-03T03:28:16.590Z,99091.22
2019-04-03T03:29:25.111Z,99094.21
2019-04-03T03:30:42.673Z,99093.09
2019-04-03T03:31:59.215Z,99089.98
2019-04-03T03:32:40.726Z,99090.97
2019-04-03T03:33:47.379Z,99094.84
2019-04-03T03:35:05.112Z,99091.36
2019-04-03T03:35:59.113Z,99098.17
2019-04-03T03:37:04.143Z,99094.08
2019-04-03T03:38:09.246Z,99094.08
2019-04-03T03:39:13.945Z,99099.53
2019-04-03T03:40:18.213Z,99099.65
2019-04-03T03:41:24.171Z,99092.34
2019-04-03T03:42:30.958Z,99091.73
2019-04-03T03:43:38.207Z,99091.48
2019-04-03T03:44:45.585Z,99089.24
2019-04-03T03:45:52.560Z,99087.51
2019-04-03T03:46:59.397Z,99084.90
2019-04-03T03:48:03.392Z,99084.06
2019-04-03T03:49:07.762Z,99081.34
2019-04-03T03:50:12.790Z,99086.64
2019-04-03T03:51:17.640Z,99076.98
2019-04-03T03:52:21.806Z,99086.14
2019-04-03T03:53:26.601Z,99079.83
2019-04-03T03:54:31.703Z,99083.42
2019-04-03T03:55:38.138Z,99077.86
2019-04-03T03:56:43.916Z,99077.73
2019-04-03T03:57:48.597Z,99080.46
2019-04-03T03:58:53.242Z,99083.19
2019-04-03T03:59:57.918Z,99087.65
2019-04-03T04:01:02.053Z,99083.06
2019-04-03T04:02:06.705Z,99083.56
2019-04-03T04:03:12.009Z,99081.82
2019-04-03T04:04:16.385Z,99079.09
2019-04-03T04:05:22.179Z,99081.94
2019-04-03T04:06:29.367Z,99082.92
2019-04-03T04:07:35.824Z,99082.55
2019-04-03T04:08:42.735Z,99077.59
2019-04-03T04:09:45.032Z,99072.64
2019-04-03T04:10:50.204Z,99077.25
2019-04-03T04:11:55.491Z,99072.53
2019-04-03T04:13:00.465Z,99068.56
2019-04-03T04:14:05.009Z,99074.62
2019-04-03T04:15:09.092Z,99079.73
2019-04-03T04:16:13.536Z,99076.74
2019-04-03T04:17:18.810Z,99075.38
2019-04-03T04:18:25.002Z,99076.60
2019-04-03T04:19:30.994Z,99077.47
2019-04-03T04:20:37.790Z,99075.39
2019-04-03T04:21:44.560Z,99077.59
2019-04-03T04:22:50.425Z,99078.61
2019-04-03T04:23:56.704Z,99084.05
2019-04-03T04:25:04.715Z,99083.67
2019-04-03T04:26:09.205Z,99077.36
2019-04-03T04:27:13.774Z,99078.72
2019-04-03T04:28:18.646Z,99080.95
2019-04-03T04:29:23.673Z,99082.20
2019-04-03T04:30:28.058Z,99084.92
2019-04-03T04:31:32.496Z,99082.54
2019-04-03T04:32:36.855Z,99077.09
2019-04-03T04:33:40.782Z,99087.38
2019-04-03T04:34:44.859Z,99085.15
2019-04-03T04:35:51.674Z,99088.36
2019-04-03T04:36:56.046Z,99089.23
2019-04-03T04:38:00.439Z,99089.61
2019-04-03T04:39:06.177Z,99088.36
2019-04-03T04:40:10.492Z,99086.14
2019-04-03T04:41:14.381Z,99090.71
2019-04-03T04:42:18.983Z,99093.93
2019-04-03T04:43:23.144Z,99093.93
2019-04-03T04:44:27.060Z,99094.08
2019-04-03T04:45:33.272Z,99098.16
2019-04-03T04:46:37.311Z,99094.20
2019-04-03T04:47:41.370Z,99089.61
2019-04-03T04:48:45.537Z,99098.16
2019-04-03T04:49:49.469Z,99092.34
2019-04-03T04:50:55.111Z,99090.98
2019-04-03T04:51:59.396Z,99097.78
2019-04-03T04:53:03.410Z,99097.78
2019-04-03T04:54:07.531Z,99093.81
2019-04-03T04:55:11.624Z,99101.50
2019-04-03T04:56:15.749Z,99097.03
2019-04-03T04:57:19.836Z,99095.79
2019-04-03T04:58:23.887Z,99097.52
2019-04-03T04:59:28.043Z,99094.42
2019-04-03T05:00:32.539Z,99099.98
2019-04-03T05:01:36.730Z,99095.03
2019-04-03T05:02:41.215Z,99101.84
2019-04-03T05:03:45.386Z,99105.09
2019-04-03T05:04:49.303Z,99100.63
2019-04-03T05:05:53.141Z,99099.27
2019-04-03T05:06:59.706Z,99101.99
2019-04-03T05:08:03.479Z,99098.89
2019-04-03T05:09:07.993Z,99103.09
2019-04-03T05:10:12.422Z,99101.35
2019-04-03T05:11:16.495Z,99102.83
2019-04-03T05:12:20.843Z,99108.16
2019-04-03T05:13:25.418Z,99099.73
2019-04-03T05:14:30.091Z,99096.28
2019-04-03T05:15:34.400Z,99093.19
2019-04-03T05:16:38.381Z,99091.83
2019-04-03T05:17:42.378Z,99092.81
2019-04-03T05:18:46.553Z,99088.58
2019-04-03T05:19:50.809Z,99091.79
2019-04-03T05:20:55.370Z,99087.97
2019-04-03T05:21:59.518Z,99084.61
2019-04-03T05:23:03.877Z,99088.57
2019-04-03T05:24:13.060Z,99091.41
2019-04-03T05:25:13.844Z,99085.96
2019-04-03T05:26:20.976Z,99082.11
2019-04-03T05:27:24.379Z,99080.02
2019-04-03T05:28:28.351Z,99077.42
2019-04-03T05:29:34.756Z,99084.83
2019-04-03T05:30:39.569Z,99089.28
2019-04-03T05:31:43.608Z,99088.64
2019-04-03T05:32:48.662Z,99081.53
2019-04-03T05:33:53.175Z,99085.42
2019-04-03T05:34:57.683Z,99084.94
2019-04-03T05:36:01.680Z,99080.74
2019-04-03T05:37:05.767Z,99084.44
2019-04-03T05:38:10.213Z,99080.05
2019-04-03T05:39:14.707Z,99081.03
2019-04-03T05:40:18.688Z,99075.83
2019-04-03T05:41:22.542Z,99069.13
2019-04-03T05:42:26.964Z,99081.96
2019-04-03T05:43:32.478Z,99074.50
2019-04-03T05:44:36.889Z,99079.44
2019-04-03T05:45:42.129Z,99078.30
2019-04-03T05:46:46.401Z,99079.66
2019-04-03T05:47:52.594Z,99078.30
2019-04-03T05:48:56.886Z,99076.72
2019-04-03T05:50:01.326Z,99082.66
2019-04-03T05:51:05.523Z,99083.64
2019-04-03T05:52:09.745Z,99084.02
2019-04-03T05:53:13.839Z,99075.86
2019-04-03T05:54:18.162Z,99077.59
2019-04-03T05:55:22.083Z,99082.05
2019-04-03T05:56:26.249Z,99079.98
2019-04-03T05:57:30.406Z,99079.12
2019-04-03T05:58:34.566Z,99083.05
2019-04-03T05:59:38.973Z,99078.48
2019-04-03T06:00:43.137Z,99069.34
2019-04-03T06:01:47.288Z,99070.47
2019-04-03T06:02:53.142Z,99080.48
2019-04-03T06:03:57.543Z,99075.91
2019-04-03T06:05:01.974Z,99083.09
2019-04-03T06:06:06.203Z,99077.98
2019-04-03T06:07:10.366Z,99083.05
2019-04-03T06:08:14.979Z,99084.30
2019-04-03T06:09:21.752Z,99078.97
2019-04-03T06:10:27.767Z,99081.09
2019-04-03T06:11:31.942Z,99076.52
2019-04-03T06:12:37.512Z,99080.98
2019-04-03T06:13:41.684Z,99077.66
2019-04-03T06:14:46.202Z,99073.81
2019-04-03T06:15:52.745Z,99069.50
2019-04-03T06:16:56.796Z,99071.13
2019-04-03T06:18:00.658Z,99069.77
2019-04-03T06:19:06.674Z,99073.85
2019-04-03T06:20:11.413Z,99074.45
2019-04-03T06:21:16.086Z,99064.93
2019-04-03T06:22:21.992Z,99064.17
2019-04-03T06:23:26.371Z,99066.89
2019-04-03T06:24:30.321Z,99066.41
2019-04-03T06:25:34.871Z,99059.48
2019-04-03T06:26:39.582Z,99056.77
2019-04-03T06:27:46.259Z,99057.52
2019-04-03T06:28:50.290Z,99054.20
2019-04-03T06:29:55.534Z,99050.95
2019-04-03T06:31:00.108Z,99057.27
2019-04-03T06:32:06.026Z,99056.39
2019-04-03T06:33:10.185Z,99055.91
2019-04-03T06:34:14.695Z,99055.20
2019-04-03T06:35:18.679Z,99051.03
2019-04-03T06:36:23.006Z,99051.75
2019-04-03T06:37:27.189Z,99048.66
2019-04-03T06:38:31.387Z,99050.12
2019-04-03T06:39:35.638Z,99044.53
2019-04-03T06:40:39.715Z,99045.66
2019-04-03T06:41:43.527Z,99046.80
2019-04-03T06:42:47.628Z,99049.75
2019-04-03T06:43:54.062Z,99052.73
2019-04-03T06:44:57.985Z,99042.83
2019-04-03T06:46:02.075Z,99040.94
2019-04-03T06:47:05.987Z,99042.17
2019-04-03T06:48:10.063Z,99046.75
2019-04-03T06:49:13.971Z,99041.69
2019-04-03T06:50:17.964Z,99047.84
2019-04-03T06:51:21.728Z,99042.56
2019-04-03T06:52:25.702Z,99049.86
2019-04-03T06:53:29.602Z,99049.63
2019-04-03T06:54:34.211Z,99051.91
2019-04-03T06:55:38.344Z,99049.33
2019-04-03T06:56:42.627Z,99050.20
2019-04-03T06:57:46.525Z,99049.94
2019-04-03T06:58:50.879Z,99052.69
2019-04-03T06:59:54.837Z,99054.81
2019-04-03T07:00:58.739Z,99053.94
2019-04-03T07:02:02.655Z,99048.37
2019-04-03T07:03:06.488Z,99048.11
2019-04-03T07:04:10.557Z,99049.02
2019-04-03T07:05:15.124Z,99046.63
2019-04-03T07:06:19.570Z,99049.35
2019-04-03T07:07:33.425Z,99044.66
2019-04-03T07:08:34.627Z,99051.61
2019-04-03T07:09:36.793Z,99050.63
2019-04-03T07:10:40.513Z,99057.44
2019-04-03T07:11:44.865Z,99049.61
2019-04-03T07:12:49.200Z,99053.58
2019-04-03T07:13:54.323Z,99049.00
2019-04-03T07:14:58.259Z,99049.11
2019-04-03T07:16:02.859Z,99049.98
2019-04-03T07:17:07.350Z,99044.66
2019-04-03T07:18:11.508Z,99049.61
2019-04-03T07:19:15.542Z,99047.75
2019-04-03T07:20:20.838Z,99040.08
2019-04-03T07:21:27.449Z,99041.20
2019-04-03T07:22:30.816Z,99043.69
2019-04-03T07:23:34.759Z,99043.81
2019-04-03T07:24:39.353Z,99043.44
2019-04-03T07:25:43.277Z,99049.98
2019-04-03T07:26:47.853Z,99051.84
2019-04-03T07:27:51.808Z,99055.92
2019-04-03T07:28:56.311Z,99047.75
2019-04-03T07:30:00.401Z,99054.56
2019-04-03T07:31:04.534Z,99044.16
2019-04-03T07:32:08.673Z,99044.53
2019-04-03T07:33:12.590Z,99041.31
2019-04-03T07:34:16.465Z,99043.55
2019-04-03T07:35:20.590Z,99042.68
2019-04-03T07:36:24.590Z,99043.81
2019-04-03T07:37:28.874Z,99037.38
2019-04-03T07:38:32.781Z,99046.80
2019-04-03T07:39:37.007Z,99038.35
2019-04-03T07:40:41.006Z,99037.62
2019-04-03T07:41:45.475Z,99042.31
2019-04-03T07:42:49.389Z,99040.34
2019-04-03T07:43:53.645Z,99033.78
2019-04-03T07:44:57.482Z,99035.50
2019-04-03T07:46:03.444Z,99032.27
2019-04-03T07:47:07.608Z,99034.62
2019-04-03T07:48:11.671Z,99035.23
2019-04-03T07:49:15.652Z,99035.46
2019-04-03T07:50:19.929Z,99037.18
2019-04-03T07:51:23.903Z,99040.02
2019-04-03T07:52:28.012Z,99037.76
2019-04-03T07:53:33.039Z,99040.30
2019-04-03T07:54:37.137Z,99038.41
2019-04-03T07:55:43.803Z,99030.64
2019-04-03T07:56:47.148Z,99034.66
2019-04-03T07:57:51.765Z,99038.33
2019-04-03T07:58:55.990Z,99030.63
2019-04-03T07:59:59.964Z,99033.31
2019-04-03T08:01:04.207Z,99033.39
2019-04-03T08:02:10.132Z,99026.44
2019-04-03T08:03:14.406Z,99025.31
2019-04-03T08:04:18.238Z,99023.08
2019-04-03T08:05:22.263Z,99022.20
2019-04-03T08:06:26.752Z,99011.55
2019-04-03T08:07:30.889Z,99012.20
2019-04-03T08:08:34.800Z,99012.33
2019-04-03T08:09:38.639Z,99011.59
2019-04-03T08:10:43.180Z,99006.00
2019-04-03T08:11:46.963Z,99000.30
2019-04-03T08:12:51.206Z,98998.56
2019-04-03T08:13:55.753Z,99000.06
2019-04-03T08:15:00.466Z,98996.83
2019-04-03T08:16:04.377Z,98998.48
2019-04-03T08:17:08.847Z,99001.47
2019-04-03T08:18:12.945Z,99004.83
2019-04-03T08:19:17.103Z,99001.15
2019-04-03T08:20:20.938Z,98998.91
2019-04-03T08:21:25.159Z,99002.27
2019-04-03T08:22:29.320Z,98999.21
2019-04-03T08:23:34.676Z,99002.35
2019-04-03T08:24:40.157Z,98998.27
2019-04-03T08:25:47.571Z,98995.33
2019-04-03T08:26:52.094Z,99001.66
2019-04-03T08:27:56.465Z,98998.23
2019-04-03T08:29:01.794Z,99004.96
2019-04-03T08:30:08.541Z,99004.71
2019-04-03T08:31:12.488Z,99000.25
2019-04-03T08:32:17.091Z,99003.84
2019-04-03T08:33:26.047Z,98999.50
2019-04-03T08:34:30.681Z,99004.18
2019-04-03T08:35:35.488Z,98999.59
2019-04-03T08:36:39.927Z,99003.52
2019-04-03T08:37:43.896Z,98998.76
2019-04-03T08:38:48.686Z,98998.22
2019-04-03T08:39:53.192Z,98997.67
2019-04-03T08:40:57.685Z,98999.03
2019-04-03T08:42:01.738Z,98999.36
2019-04-03T08:43:05.727Z,98994.09
2019-04-03T08:44:09.800Z,98991.08
2019-04-03T08:45:14.085Z,98992.13
2019-04-03T08:46:18.277Z,98996.41
2019-04-03T08:47:22.378Z,99002.92
2019-04-03T08:48:26.310Z,98996.11
2019-04-03T08:49:30.527Z,99001.92
2019-04-03T08:50:34.750Z,98998.62
2019-04-03T08:51:38.981Z,99006.00
2019-04-03T08:52:43.250Z,99005.67
2019-04-03T08:53:47.818Z,99006.03
2019-04-03T08:54:51.893Z,99006.20
2019-04-03T08:55:56.631Z,99010.09
2019-04-03T08:57:00.757Z,99011.56
2019-04-03T08:58:04.833Z,99017.22
2019-04-03T08:59:08.742Z,99018.37
2019-04-03T09:00:13.385Z,99018.30
2019-04-03T09:01:17.714Z,99020.63
2019-04-03T09:02:21.961Z,99021.05
2019-04-03T09:03:26.435Z,99017.05
2019-04-03T09:04:30.422Z,99016.54
2019-04-03T09:05:34.583Z,99013.36
2019-04-03T09:06:38.514Z,99020.84
2019-04-03T09:07:42.694Z,99011.27
2019-04-03T09:08:47.255Z,99016.31
2019-04-03T09:09:51.178Z,99022.06
2019-04-03T09:10:55.160Z,99027.53
2019-04-03T09:11:59.069Z,99024.23
2019-04-03T09:13:15.371Z,99020.83
2019-04-03T09:14:09.177Z,99021.50
2019-04-03T09:15:13.514Z,99027.84
2019-04-03T09:16:17.949Z,99026.10
2019-04-03T09:17:22.370Z,99025.23
2019-04-03T09:18:27.565Z,99023.64
2019-04-03T09:19:32.001Z,99020.84
2019-04-03T09:20:36.116Z,99021.62
2019-04-03T09:21:40.327Z,99026.80
2019-04-03T09:22:44.618Z,99032.13
2019-04-03T09:23:49.312Z,99030.70
2019-04-03T09:24:53.259Z,99020.70
2019-04-03T09:25:57.518Z,99017.50
2019-04-03T09:27:01.932Z,99012.66
2019-04-03T09:28:06.190Z,99011.60
2019-04-03T09:29:12.636Z,99013.97
2019-04-03T09:30:16.708Z,99014.10
2019-04-03T09:31:21.000Z,99014.60
2019-04-03T09:32:25.667Z,99011.87
2019-04-03T09:33:30.257Z,99000.06
2019-04-03T09:34:34.877Z,98992.73
2019-04-03T09:35:39.034Z,98990.73
2019-04-03T09:36:43.178Z,98988.42
2019-04-03T09:37:47.082Z,98997.09
2019-04-03T09:38:51.703Z,98990.18
2019-04-03T09:39:56.512Z,98987.00
2019-04-03T09:41:01.013Z,98978.19
2019-04-03T09:42:04.989Z,98972.22
2019-04-03T09:43:09.632Z,98982.57
2019-04-03T09:44:13.559Z,98980.24
2019-04-03T09:45:18.091Z,98973.48
2019-04-03T09:46:22.497Z,98972.87
2019-04-03T09:47:26.468Z,98972.52
2019-04-03T09:48:30.364Z,98973.69
2019-04-03T09:49:34.779Z,98968.48
2019-04-03T09:50:38.912Z,98967.12
2019-04-03T09:51:42.871Z,98959.92
2019-04-03T09:52:49.912Z,98963.29
2019-04-03T09:53:52.527Z,98966.95
2019-04-03T09:54:59.746Z,98959.53
2019-04-03T09:56:02.449Z,98967.30
2019-04-03T09:57:06.541Z,98957.06
2019-04-03T09:58:10.569Z,98962.46
2019-04-03T09:59:16.140Z,98957.27
2019-04-03T10:00:20.611Z,98968.46
2019-04-03T10:01:24.887Z,98959.89
2019-04-03T10:02:28.798Z,98964.49
2019-04-03T10:03:34.121Z,98967.23
2019-04-03T10:04:38.123Z,98967.46
2019-04-03T10:05:42.105Z,98970.93
2019-04-03T10:06:46.513Z,98962.96
2019-04-03T10:07:50.669Z,98961.80
2019-04-03T10:08:54.674Z,98959.66
2019-04-03T10:09:58.662Z,98955.06
2019-04-03T10:11:02.650Z,98962.83
2019-04-03T10:12:06.856Z,98962.06
2019-04-03T10:13:10.646Z,98958.39
2019-04-03T10:14:14.519Z,98955.45
2019-04-03T10:15:19.140Z,98960.08
2019-04-03T10:16:23.263Z,98958.30
2019-04-03T10:17:27.160Z,98963.92
2019-04-03T10:18:30.998Z,98955.67
2019-04-03T10:19:35.167Z,98957.69
2019-04-03T10:20:39.916Z,98958.11
2019-04-03T10:21:44.305Z,98955.16
2019-04-03T10:22:48.598Z,98954.24
2019-04-03T10:23:53.031Z,98960.13
2019-04-03T10:25:00.056Z,98957.13
2019-04-03T10:26:03.359Z,98950.50
2019-04-03T10:27:07.314Z,98955.16
2019-04-03T10:28:13.908Z,98950.27
2019-04-03T10:29:19.090Z,98952.42
2019-04-03T10:30:23.992Z,98954.34
2019-04-03T10:31:28.125Z,98953.20
2019-04-03T10:32:32.409Z,98940.45
2019-04-03T10:33:36.914Z,98947.20
2019-04-03T10:34:41.347Z,98948.84
2019-04-03T10:35:47.346Z,98943.27
2019-04-03T10:36:51.710Z,98941.02
2019-04-03T10:37:55.856Z,98940.30
2019-04-03T10:39:00.199Z,98933.74
2019-04-03T10:40:05.933Z,98933.31
2019-04-03T10:41:11.161Z,98938.11
2019-04-03T10:42:16.005Z,98931.22
2019-04-03T10:43:20.265Z,98927.72
2019-04-03T10:44:24.250Z,98940.87
2019-04-03T10:45:28.238Z,98928.78
2019-04-03T10:46:32.531Z,98928.88
2019-04-03T10:47:42.795Z,98923.78
2019-04-03T10:48:42.466Z,98920.59
2019-04-03T10:49:46.717Z,98911.67
2019-04-03T10:50:50.564Z,98918.86
2019-04-03T10:51:55.146Z,98922.05
2019-04-03T10:52:59.482Z,98918.70
2019-04-03T10:54:04.450Z,98917.81
2019-04-03T10:55:10.187Z,98922.94
2019-04-03T10:56:14.433Z,98923.80
2019-04-03T10:57:18.902Z,98920.77
2019-04-03T10:58:22.886Z,98922.53
2019-04-03T10:59:26.964Z,98910.78
2019-04-03T11:00:30.952Z,98905.17
2019-04-03T11:01:35.606Z,98907.59
2019-04-03T11:02:39.994Z,98908.17
2019-04-03T11:03:44.578Z,98899.81
2019-04-03T11:04:48.669Z,98890.80
2019-04-03T11:05:53.020Z,98900.81
2019-04-03T11:06:57.254Z,98891.88
2019-04-03T11:08:01.501Z,98889.29
2019-04-03T11:09:08.733Z,98896.69
2019-04-03T11:10:13.525Z,98900.98
2019-04-03T11:11:17.989Z,98894.83
2019-04-03T11:12:22.332Z,98899.16
2019-04-03T11:13:26.764Z,98889.92
2019-04-03T11:14:31.011Z,98877.94
2019-04-03T11:15:35.177Z,98886.07
2019-04-03T11:16:39.540Z,98885.77
2019-04-03T11:17:44.078Z,98889.89
2019-04-03T11:18:58.681Z,98885.77
2019-04-03T11:19:54.601Z,98885.98
2019-04-03T11:20:58.963Z,98885.28
2019-04-03T11:22:03.018Z,98881.52
2019-04-03T11:23:08.410Z,98879.68
2019-04-03T11:24:13.236Z,98868.39
2019-04-03T11:25:17.499Z,98865.15
2019-04-03T11:26:24.308Z,98861.62
2019-04-03T11:27:40.861Z,98858.25
2019-04-03T11:28:37.058Z,98859.31
2019-04-03T11:29:40.876Z,98848.84
2019-04-03T11:30:45.417Z,98858.14
2019-04-03T11:31:49.711Z,98846.84
2019-04-03T11:32:53.843Z,98841.66
2019-04-03T11:33:58.359Z,98844.75
2019-04-03T11:35:02.817Z,98838.75
2019-04-03T11:36:06.890Z,98837.02
2019-04-03T11:37:10.882Z,98843.37
2019-04-03T11:38:25.699Z,98833.72
2019-04-03T11:39:21.236Z,98835.02
2019-04-03T11:40:25.675Z,98837.33
2019-04-03T11:41:30.342Z,98834.89
2019-04-03T11:42:34.366Z,98836.02
2019-04-03T11:43:38.809Z,98830.46
2019-04-03T11:44:42.976Z,98828.38
2019-04-03T11:45:47.042Z,98831.12
2019-04-03T11:46:51.150Z,98827.51
2019-04-03T11:47:55.011Z,98826.53
2019-04-03T11:48:59.167Z,98833.05
2019-04-03T11:50:03.291Z,98836.02
2019-04-03T11:51:07.602Z,98831.42
2019-04-03T11:52:11.640Z,98832.13
2019-04-03T11:53:15.848Z,98838.64
2019-04-03T11:54:19.742Z,98830.25
2019-04-03T11:55:23.715Z,98831.06
2019-04-03T11:56:27.631Z,98827.56
2019-04-03T11:57:31.891Z,98830.46
2019-04-03T11:58:35.994Z,98826.89
2019-04-03T11:59:40.245Z,98828.52
2019-04-03T12:00:46.426Z,98831.41
2019-04-03T12:01:51.124Z,98828.30
2019-04-03T12:02:55.637Z,98825.35
2019-04-03T12:03:59.901Z,98831.84
2019-04-03T12:05:03.804Z,98836.27
2019-04-03T12:06:08.016Z,98830.58
2019-04-03T12:07:12.387Z,98834.18
2019-04-03T12:08:17.082Z,98840.69
2019-04-03T12:09:21.621Z,98812.50
2019-04-03T12:10:26.191Z,98839.01
2019-04-03T12:11:30.567Z,98836.25
2019-04-03T12:12:34.904Z,98834.31
2019-04-03T12:13:39.171Z,98835.54
2019-04-03T12:14:43.460Z,98835.18
2019-04-03T12:15:51.988Z,98831.06
2019-04-03T12:16:57.635Z,98819.53
2019-04-03T12:18:02.349Z,98831.95
2019-04-03T12:19:07.101Z,98829.49
2019-04-03T12:20:12.820Z,98834.81
2019-04-03T12:21:18.908Z,98831.02
2019-04-03T12:22:23.643Z,98834.09
2019-04-03T12:23:27.868Z,98825.86
2019-04-03T12:24:32.014Z,98826.38
2019-04-03T12:25:39.460Z,98824.84
2019-04-03T12:26:44.078Z,98832.34
2019-04-03T12:27:48.396Z,98828.06
2019-04-03T12:28:52.789Z,98832.16
2019-04-03T12:29:56.704Z,98835.62
2019-04-03T12:31:01.453Z,98823.91
2019-04-03T12:32:07.709Z,98824.06
2019-04-03T12:33:12.259Z,98823.13
2019-04-03T12:34:16.510Z,98825.45
2019-04-03T12:35:20.678Z,98820.81
2019-04-03T12:36:27.069Z,98819.44
2019-04-03T12:37:30.443Z,98820.09
2019-04-03T12:38:35.242Z,98829.78
2019-04-03T12:39:39.924Z,98827.09